Terminal Aerodrome Forecast
Issued by NWS

Home | Current Version | Previous Version | Text Only | Print | Product List | Glossary On
Versions: 1 2 3 4 5 6 7 8 9 10 11 12
000
FTUS45 KGJT 311736
TAFVEL
TAF
KVEL 311736Z 3118/0118 09003KT P6SM SCT150
     FM312000 23006KT P6SM SCT150
     FM011200 28006KT P6SM BKN100=

USA.gov is the U.S. government's official web portal to all federal, state and local government web resources and services.